Cordele, Georgia
Current Conditions -  °F | °C
As of 6:55 PM on Friday 28 Nov 2014 (Local Time) from KCKF Reporting Station
Clear Clear  
Wind Chill: 41°   Ceiling: Unl
Heat Index: 41°   Visibility: 10mi
Dew Point: 33°   Wind: 0mph
Humidity: 72%   Direction: NA
Pressure: 30.34"   Gusts: NA
Location:  31.97°N, 83.78°W
Report Text: KCKF 282355Z AUTO 00000KT 10SM CLR 05/00 A3034 RMK AO2 T00510004 10112 20051
Loading
Personal Weather Stations






























Interactive Weather Map New forecast layout! Learn more

10-Day Weather Forecast

Advertisements
Track Severe Weather on mobile